Skip Navigation Links Skip Navigation Links

Current Weather

Metropolis Muni, Metropolis, Ill.

For information only: do not use for flight planning or navigation.
Latest weather
Observation time Thursday, January 27, 2022 11:35 PM CST
Local time Friday, January 28, 2022 12:00 AM CST
Flight conditions Visual Meteorological Conditions
Winds
Wind speed calm
Visibility 10 mi.
Sky condition
Ceiling unlimited
Cloud layer scattered clouds 4,500 ft.
Temperature 28°F
Dewpoint 21°F
Altimeter 30.27 in.Hg
Derived measurements
Relative humidity 76%
Wind chill 28°F
Density altitude -2081 ft.
Remarks
Fully automated report.
Automated weather observing station with precipitation discriminator.
METAR KM30 280535Z AUTO 00000KT 10SM SCT045 M02/M06 A3027 RMK AO2 T10231059

Settings

Location code

InnerDrive.Weather 4.0.6770.0 Release CLR 4.0.30319.42000
Copyright ©2018 Inner Drive Technology. All rights reserved. Portions Copyright ©1986-2018 David Braverman.

Find weather

Site navigation


Skip Navigation Links

Place info

Page info

PayPal - The safer, easier way to pay online!

Return home.

Copyright ©2022 Inner Drive Technology. Purveyors of fine, hand-crafted computer software. Page printed 2022-01-28T06:00:36 UTC.